Time;durP1;ratioP1;P1;durP2;ratioP2;P2;SDS_P1;SDS_P2;PMS_P1;PMS_P2;Temp;Humidity;BMP_temperature;BMP_pressure;BME280_temperature;BME280_humidity;BME280_pressure;Samples;Min_cycle;Max_cycle;Signal;HPM_P1;HPM_P2
2020/12/05 00:05:12;;;;;;;1409.15;59.95;;;2.90;99.90;;;;;;20744601;28;20104;-60
2020/12/05 00:15:15;;;;;;;14.23;5.88;;;3.00;99.90;;;;;;20706604;28;20080;-61
2020/12/05 00:25:17;;;;;;;812.00;34.42;;;3.00;99.90;;;;;;20724162;28;20053;-60
2020/12/05 00:35:19;;;;;;;969.50;33.58;;;2.70;99.90;;;;;;20817749;28;20049;-59
2020/12/05 00:45:20;;;;;;;1567.07;63.95;;;2.50;99.90;;;;;;20787238;28;20037;-60
2020/12/05 00:55:23;;;;;;;1999.90;78.88;;;2.80;99.90;;;;;;20817917;28;20095;-59
2020/12/05 01:05:25;;;;;;;1214.38;50.83;;;3.00;99.90;;;;;;20708968;28;20112;-59
2020/12/05 01:15:28;;;;;;;1136.38;47.08;;;3.10;99.90;;;;;;20718362;28;20069;-59
2020/12/05 01:25:30;;;;;;;1147.65;55.53;;;3.00;99.90;;;;;;20747102;28;20361;-59
2020/12/05 01:35:32;;;;;;;1524.85;55.97;;;2.90;99.90;;;;;;20749225;28;20057;-60
2020/12/05 01:45:33;;;;;;;990.03;40.42;;;2.90;99.90;;;;;;20782439;28;20034;-60
2020/12/05 01:55:36;;;;;;;638.55;27.55;;;3.00;99.90;;;;;;20830820;28;20095;-60
2020/12/05 02:06:22;;;;;;;8.00;3.05;;;2.70;99.90;;;;;;20795618;28;20053;-60
2020/12/05 02:16:24;;;;;;;1.10;0.55;;;2.30;99.90;;;;;;20755060;28;20049;-59
2020/12/05 02:26:28;;;;;;;0.60;0.30;;;2.20;99.90;;;;;;20839017;28;20041;-59
2020/12/05 02:36:35;;;;;;;3.58;1.00;;;2.00;99.90;;;;;;20859179;28;20091;-59
2020/12/05 02:46:37;;;;;;;82.00;4.43;;;2.20;99.90;;;;;;20891733;28;20036;-60
2020/12/05 02:56:38;;;;;;;410.75;19.80;;;2.20;99.90;;;;;;20900132;28;20046;-59
2020/12/05 03:06:40;;;;;;;10.20;3.63;;;2.40;99.90;;;;;;20825501;28;20067;-59
2020/12/05 03:16:42;;;;;;;1.42;0.77;;;2.50;99.90;;;;;;20824941;28;20116;-59
2020/12/05 03:26:44;;;;;;;2.08;0.70;;;2.50;99.90;;;;;;20825394;28;20029;-61
2020/12/05 03:36:46;;;;;;;5.05;1.00;;;2.40;99.90;;;;;;20824104;28;20037;-60
2020/12/05 03:46:47;;;;;;;356.33;15.55;;;2.40;99.90;;;;;;20788036;28;20042;-59
2020/12/05 03:56:49;;;;;;;4.28;0.80;;;2.50;99.90;;;;;;20839831;28;20038;-59
2020/12/05 04:06:51;;;;;;;153.85;5.40;;;2.40;99.90;;;;;;20833891;28;20049;-59
2020/12/05 04:16:52;;;;;;;22.65;1.35;;;2.50;99.90;;;;;;20753771;28;20050;-58
2020/12/05 04:26:54;;;;;;;5.20;1.23;;;2.40;99.90;;;;;;20770131;28;20057;-58
2020/12/05 04:36:56;;;;;;;1.00;0.50;;;2.40;99.90;;;;;;20836758;28;20041;-59
2020/12/05 04:47:02;;;;;;;1.58;0.95;;;2.30;99.90;;;;;;20836357;28;20037;-58
2020/12/05 04:57:06;;;;;;;3.33;1.25;;;2.40;99.90;;;;;;20824603;28;20046;-59
2020/12/05 05:07:08;;;;;;;19.10;1.85;;;2.60;99.90;;;;;;20734680;28;20115;-59
2020/12/05 05:17:10;;;;;;;3.38;1.58;;;2.60;99.90;;;;;;20733788;28;20038;-59
2020/12/05 05:27:12;;;;;;;2.95;0.65;;;2.40;99.90;;;;;;20750613;28;20100;-58
2020/12/05 05:37:18;;;;;;;0.85;0.20;;;2.50;99.90;;;;;;20750193;28;20045;-59
2020/12/05 05:47:20;;;;;;;0.98;0.15;;;2.40;99.90;;;;;;20779258;28;20030;-59
2020/12/05 05:57:22;;;;;;;1.90;0.15;;;1.90;99.90;;;;;;20813341;28;20034;-59
2020/12/05 06:07:26;;;;;;;0.57;0.30;;;1.60;99.90;;;;;;20829040;28;20462;-60
2020/12/05 06:17:28;;;;;;;0.95;0.20;;;1.30;99.90;;;;;;20828990;28;20041;-59
2020/12/05 06:27:35;;;;;;;2.25;0.20;;;1.30;99.90;;;;;;20860217;28;20049;-58
2020/12/05 06:37:37;;;;;;;0.28;0.00;;;1.10;99.90;;;;;;20809615;28;20041;-58
2020/12/05 06:47:40;;;;;;;0.52;0.00;;;1.00;99.90;;;;;;20827237;28;20064;-60
2020/12/05 06:57:43;;;;;;;0.38;0.10;;;0.90;99.90;;;;;;20808005;28;20041;-59
2020/12/05 07:07:49;;;;;;;3.67;0.03;;;0.80;99.90;;;;;;20889852;28;20533;-60
2020/12/05 07:17:53;;;;;;;0.00;0.00;;;0.80;99.90;;;;;;20906686;28;20037;-59
2020/12/05 07:27:55;;;;;;;0.00;0.00;;;0.80;99.90;;;;;;20871464;28;20102;-60
2020/12/05 07:37:57;;;;;;;1.88;0.00;;;0.80;99.90;;;;;;20906521;28;20040;-59
2020/12/05 07:48:14;;;;;;;0.55;0.00;;;0.80;99.90;;;;;;20854053;28;20049;-58
2020/12/05 07:58:15;;;;;;;0.00;0.00;;;0.90;99.90;;;;;;20781714;28;20037;-58
2020/12/05 08:08:18;;;;;;;0.00;0.00;;;0.90;99.90;;;;;;20822494;28;20095;-56
2020/12/05 08:18:24;;;;;;;0.32;0.00;;;1.00;99.90;;;;;;20805042;28;20041;-57
2020/12/05 08:28:28;;;;;;;0.38;0.00;;;0.90;99.90;;;;;;20819762;28;20423;-59
2020/12/05 08:38:30;;;;;;;0.35;0.00;;;0.80;99.90;;;;;;20836155;28;20076;-59
2020/12/05 08:48:41;;;;;;;0.55;0.00;;;0.90;99.90;;;;;;20802335;28;20033;-54
2020/12/05 08:58:47;;;;;;;0.00;0.00;;;1.00;99.90;;;;;;20817947;28;20041;-56
2020/12/05 09:08:49;;;;;;;0.00;0.00;;;1.10;99.90;;;;;;20835065;28;20045;-58
2020/12/05 09:18:52;;;;;;;1.95;0.47;;;1.00;99.90;;;;;;20798912;28;20049;-60
2020/12/05 09:28:56;;;;;;;8.85;0.77;;;0.90;99.90;;;;;;20798777;28;20042;-59
2020/12/05 09:38:58;;;;;;;2.35;0.30;;;1.00;99.90;;;;;;20812785;28;20080;-58
2020/12/05 09:48:59;;;;;;;3.05;0.80;;;1.00;99.90;;;;;;20799664;28;20099;-60
2020/12/05 09:59:01;;;;;;;1.75;0.00;;;1.00;99.90;;;;;;20830861;28;20037;-59
2020/12/05 10:09:03;;;;;;;0.10;0.00;;;1.10;99.90;;;;;;20829729;28;20088;-60
2020/12/05 10:19:05;;;;;;;0.10;0.00;;;1.10;99.90;;;;;;20807782;28;20318;-60
2020/12/05 10:29:08;;;;;;;0.38;0.10;;;1.40;99.90;;;;;;20860640;28;20076;-59
2020/12/05 10:39:11;;;;;;;0.20;0.00;;;1.60;99.90;;;;;;20909690;28;20111;-58
2020/12/05 10:49:14;;;;;;;0.00;0.00;;;1.60;99.90;;;;;;20874727;28;20045;-57
2020/12/05 10:59:15;;;;;;;0.10;0.00;;;2.40;99.90;;;;;;20807337;28;20064;-56
2020/12/05 11:09:18;;;;;;;1.45;0.00;;;2.40;99.90;;;;;;20825706;28;20041;-59
2020/12/05 11:19:20;;;;;;;0.22;0.00;;;2.20;99.90;;;;;;20789394;28;20576;-59
2020/12/05 11:29:22;;;;;;;0.05;0.05;;;2.30;99.90;;;;;;20824161;28;20037;-57
2020/12/05 11:39:24;;;;;;;719.00;30.60;;;3.10;99.90;;;;;;20724350;28;20049;-61
2020/12/05 11:49:27;;;;;;;39.58;2.67;;;3.20;99.90;;;;;;20757262;28;20089;-60
2020/12/05 11:59:31;;;;;;;136.95;5.40;;;3.20;99.90;;;;;;20708078;28;20396;-60
2020/12/05 12:09:35;;;;;;;564.90;22.42;;;3.40;99.90;;;;;;20864244;23;20053;-59
2020/12/05 12:19:37;;;;;;;1059.45;37.13;;;3.50;99.90;;;;;;20723211;28;20077;-59
2020/12/05 12:29:39;;;;;;;1295.70;43.28;;;3.50;99.90;;;;;;20759713;28;20089;-59
2020/12/05 12:39:41;;;;;;;886.40;30.02;;;3.50;99.90;;;;;;20802709;28;20356;-62
2020/12/05 12:49:43;;;;;;;957.28;29.05;;;3.50;99.90;;;;;;20752434;28;20049;-58
2020/12/05 12:59:45;;;;;;;581.20;15.93;;;3.50;99.90;;;;;;20752248;28;20499;-60
2020/12/05 13:09:47;;;;;;;581.50;19.15;;;3.60;99.90;;;;;;20684396;28;20105;-60
2020/12/05 13:19:51;;;;;;;15.27;1.65;;;3.60;99.90;;;;;;20653778;28;20030;-59
2020/12/05 13:29:55;;;;;;;679.83;27.80;;;3.90;99.90;;;;;;20653325;28;20046;-59
2020/12/05 13:39:57;;;;;;;172.90;10.30;;;3.90;99.90;;;;;;20670381;28;20370;-59
2020/12/05 13:49:59;;;;;;;319.02;18.85;;;3.90;99.90;;;;;;20719066;28;20046;-60
2020/12/05 14:00:02;;;;;;;14.10;5.13;;;4.10;99.90;;;;;;20664588;28;20492;-60
2020/12/05 14:10:14;;;;;;;11.35;5.90;;;4.10;99.90;;;;;;20717024;28;20046;-59
2020/12/05 14:20:16;;;;;;;155.38;13.20;;;4.30;99.90;;;;;;20712994;28;20476;-59
2020/12/05 14:30:18;;;;;;;1216.68;54.22;;;4.20;99.90;;;;;;20727539;28;20046;-58
2020/12/05 14:40:21;;;;;;;938.25;51.55;;;4.30;99.90;;;;;;20696698;28;20056;-59
2020/12/05 14:50:23;;;;;;;1544.30;65.63;;;4.20;99.90;;;;;;20744184;28;20042;-59
2020/12/05 15:00:25;;;;;;;505.88;23.08;;;4.30;99.90;;;;;;20732437;28;20483;-59
2020/12/05 15:10:27;;;;;;;1023.88;60.75;;;4.30;99.90;;;;;;20808419;28;20046;-59
2020/12/05 15:20:38;;;;;;;934.03;54.10;;;4.30;99.90;;;;;;20639284;28;20375;-59
2020/12/05 15:30:40;;;;;;;779.63;37.92;;;4.50;99.90;;;;;;20636156;28;20046;-59
2020/12/05 15:40:43;;;;;;;1066.03;45.63;;;4.40;99.90;;;;;;20641078;28;20030;-59
2020/12/05 15:50:46;;;;;;;1554.18;58.53;;;4.30;99.90;;;;;;20637157;28;20376;-59
2020/12/05 16:00:48;;;;;;;409.83;15.02;;;4.50;99.90;;;;;;20659493;28;20562;-58
2020/12/05 16:10:50;;;;;;;178.02;9.13;;;4.40;99.90;;;;;;20676431;28;20049;-60
2020/12/05 16:20:52;;;;;;;867.95;32.35;;;4.30;99.90;;;;;;20738963;28;20042;-63
2020/12/05 16:30:54;;;;;;;925.78;30.52;;;4.20;99.90;;;;;;20754226;28;20049;-59
2020/12/05 16:40:57;;;;;;;672.65;24.67;;;4.20;99.90;;;;;;20818735;28;20096;-60
2020/12/05 16:50:58;;;;;;;546.17;15.52;;;4.20;99.90;;;;;;20804459;28;20041;-59
2020/12/05 17:01:01;;;;;;;765.05;22.75;;;4.00;99.90;;;;;;20719158;28;20022;-60
2020/12/05 17:11:03;;;;;;;1077.90;35.35;;;4.10;99.90;;;;;;20752334;28;20088;-59
2020/12/05 17:21:06;;;;;;;1134.65;42.38;;;4.40;99.90;;;;;;20751759;28;20391;-60
2020/12/05 17:31:08;;;;;;;1278.97;40.28;;;4.60;99.90;;;;;;20751214;28;20389;-60
2020/12/05 17:41:10;;;;;;;1101.50;34.08;;;4.50;99.90;;;;;;20750241;28;20038;-59
2020/12/05 17:51:12;;;;;;;712.22;18.85;;;4.60;99.90;;;;;;20828235;28;20407;-59
2020/12/05 18:01:18;;;;;;;1271.75;45.42;;;4.90;99.90;;;;;;20795901;28;20076;-60
2020/12/05 18:11:20;;;;;;;1952.57;65.53;;;5.00;99.90;;;;;;20794853;28;20551;-58
2020/12/05 18:21:28;;;;;;;634.08;21.27;;;5.00;99.90;;;;;;20829113;28;20057;-60
2020/12/05 18:31:31;;;;;;;1999.90;121.45;;;4.90;99.90;;;;;;20775874;28;20088;-59
2020/12/05 18:41:38;;;;;;;857.30;54.78;;;4.80;99.90;;;;;;20746974;28;20026;-58
2020/12/05 18:51:41;;;;;;;10.45;4.10;;;4.90;99.90;;;;;;20711226;28;20050;-58
2020/12/05 19:01:44;;;;;;;7.82;2.85;;;4.90;99.90;;;;;;20792830;28;20348;-58
2020/12/05 19:11:47;;;;;;;8.55;3.05;;;4.60;99.90;;;;;;20807564;28;20045;-59
2020/12/05 19:21:54;;;;;;;1209.50;45.55;;;4.50;99.90;;;;;;20807861;28;20565;-59
2020/12/05 19:31:56;;;;;;;182.45;13.05;;;4.60;99.90;;;;;;20807778;28;20041;-59
2020/12/05 19:41:59;;;;;;;366.30;20.30;;;4.80;99.90;;;;;;20820941;28;20026;-58
2020/12/05 19:52:04;;;;;;;1257.53;43.30;;;4.90;99.90;;;;;;20724709;28;20041;-59
2020/12/05 20:02:09;;;;;;;1046.32;46.83;;;4.80;99.90;;;;;;20724477;28;20491;-59
2020/12/05 20:12:13;;;;;;;1393.97;52.35;;;4.80;99.90;;;;;;20722978;28;20103;-59
2020/12/05 20:22:16;;;;;;;996.28;31.75;;;4.60;99.90;;;;;;20709786;28;20499;-60
2020/12/05 20:32:22;;;;;;;402.67;21.42;;;4.70;99.90;;;;;;20772426;28;20030;-59
2020/12/05 20:42:24;;;;;;;653.78;31.58;;;4.80;99.90;;;;;;20736950;28;20096;-59
2020/12/05 20:52:26;;;;;;;4.93;1.63;;;4.70;99.90;;;;;;20753881;28;20049;-59
2020/12/05 21:02:29;;;;;;;881.10;35.97;;;4.60;99.90;;;;;;20735850;28;20037;-60
2020/12/05 21:12:31;;;;;;;1374.20;38.75;;;4.40;99.90;;;;;;20735944;28;20420;-58
2020/12/05 21:22:33;;;;;;;14.65;4.25;;;4.40;99.90;;;;;;20752242;28;20049;-59
2020/12/05 21:32:36;;;;;;;3.05;1.50;;;4.50;99.90;;;;;;20751058;28;20092;-61
2020/12/05 21:42:39;;;;;;;571.85;24.67;;;4.50;99.90;;;;;;20737153;28;20103;-59
2020/12/05 21:52:41;;;;;;;956.00;31.40;;;4.40;99.90;;;;;;20831588;28;20103;-59
2020/12/05 22:02:46;;;;;;;598.60;19.15;;;4.50;99.90;;;;;;20813432;28;20042;-59
2020/12/05 22:12:48;;;;;;;278.23;11.63;;;4.40;99.90;;;;;;20817855;28;20046;-59
2020/12/05 22:22:51;;;;;;;831.28;28.52;;;4.40;99.90;;;;;;20745944;28;20046;-59
2020/12/05 22:32:53;;;;;;;1679.13;54.03;;;4.60;99.90;;;;;;20747378;28;20088;-59
2020/12/05 22:42:55;;;;;;;1184.35;45.95;;;4.50;99.90;;;;;;20745442;28;20030;-58
2020/12/05 22:53:02;;;;;;;1000.58;38.67;;;4.80;99.90;;;;;;20744759;28;20547;-58
2020/12/05 23:03:04;;;;;;;1001.08;49.60;;;4.90;99.90;;;;;;20786374;28;20067;-59
2020/12/05 23:13:12;;;;;;;295.50;21.90;;;4.90;99.90;;;;;;20825538;28;20447;-60
2020/12/05 23:23:13;;;;;;;1790.60;69.60;;;4.80;99.90;;;;;;20807894;28;20492;-58
2020/12/05 23:43:36;;;;;;;910.90;43.40;;;4.80;99.90;;;;;;20743297;28;20428;-59
2020/12/05 23:53:40;;;;;;;323.88;22.33;;;4.70;99.90;;;;;;20724943;28;20084;-59
